createdAt,value
2023-02-23T00:03:59.374Z,8.77
2023-02-23T00:09:01.228Z,9.27
2023-02-23T00:11:31.025Z,9.43
2023-02-23T00:14:03.574Z,9.43
2023-02-23T00:16:32.545Z,10.15
2023-02-23T00:19:02.473Z,9.82
2023-02-23T00:21:35.033Z,9.80
2023-02-23T00:24:06.411Z,9.88
2023-02-23T00:26:36.843Z,10.13
2023-02-23T00:29:12.282Z,10.35
2023-02-23T00:31:41.641Z,11.07
2023-02-23T00:34:13.442Z,10.63
2023-02-23T00:36:43.486Z,11.48
2023-02-23T00:39:21.712Z,11.20
2023-02-23T00:41:52.436Z,10.48
2023-02-23T00:44:24.592Z,11.23
2023-02-23T00:46:54.199Z,11.07
2023-02-23T00:49:24.634Z,10.27
2023-02-23T00:51:53.756Z,11.13
2023-02-23T00:54:23.830Z,10.57
2023-02-23T00:56:53.464Z,12.18
2023-02-23T00:59:24.490Z,11.95
2023-02-23T01:01:53.695Z,11.93
2023-02-23T01:04:24.117Z,12.27
2023-02-23T01:06:53.129Z,12.17
2023-02-23T01:09:28.451Z,12.40
2023-02-23T01:12:01.528Z,11.63
2023-02-23T01:14:32.231Z,11.75
2023-02-23T01:19:34.070Z,12.85
2023-02-23T01:22:05.463Z,12.90
2023-02-23T01:24:34.768Z,12.40
2023-02-23T01:27:06.534Z,13.43
2023-02-23T01:29:37.996Z,14.77
2023-02-23T01:32:07.328Z,13.18
2023-02-23T01:34:36.622Z,12.40
2023-02-23T01:37:05.553Z,13.50
2023-02-23T01:39:35.136Z,12.05
2023-02-23T01:45:14.285Z,11.57
2023-02-23T01:47:44.742Z,11.43
2023-02-23T01:50:16.292Z,10.77
2023-02-23T01:52:48.606Z,10.07
2023-02-23T01:55:23.610Z,11.27
2023-02-23T01:57:57.646Z,10.35
2023-02-23T02:00:31.396Z,11.63
2023-02-23T02:03:08.844Z,10.88
2023-02-23T02:05:40.017Z,11.00
2023-02-23T02:08:11.370Z,10.88
2023-02-23T02:10:40.769Z,10.52
2023-02-23T02:13:14.525Z,11.60
2023-02-23T02:16:06.883Z,11.52
2023-02-23T02:18:46.424Z,11.57
2023-02-23T02:22:04.851Z,11.70
2023-02-23T02:25:19.877Z,10.68
2023-02-23T02:28:26.778Z,9.63
2023-02-23T02:31:31.636Z,9.60
2023-02-23T02:34:24.122Z,10.05
2023-02-23T02:37:35.332Z,9.68
2023-02-23T02:40:16.659Z,8.57
2023-02-23T02:43:11.548Z,9.60
2023-02-23T02:45:48.882Z,9.02
2023-02-23T02:48:26.703Z,8.85
2023-02-23T02:51:01.626Z,9.00
2023-02-23T02:53:41.004Z,8.88
2023-02-23T02:56:11.675Z,8.65
2023-02-23T03:01:33.666Z,8.93
2023-02-23T03:04:36.504Z,9.85
2023-02-23T03:07:29.646Z,9.55
2023-02-23T03:10:26.909Z,9.05
2023-02-23T03:13:23.401Z,9.25
2023-02-23T03:16:18.795Z,9.32
2023-02-23T03:19:19.287Z,8.88
2023-02-23T03:22:12.916Z,7.13
2023-02-23T03:25:02.805Z,7.70
2023-02-23T03:28:05.103Z,8.10
2023-02-23T03:31:02.180Z,8.32
2023-02-23T03:33:55.798Z,7.72
2023-02-23T03:36:46.235Z,7.15
2023-02-23T03:39:42.477Z,7.40
2023-02-23T03:42:34.403Z,7.43
2023-02-23T03:45:28.976Z,8.10
2023-02-23T03:48:18.658Z,7.82
2023-02-23T03:51:09.929Z,7.28
2023-02-23T03:54:05.816Z,7.25
2023-02-23T03:56:57.001Z,6.72
2023-02-23T03:59:47.308Z,7.22
2023-02-23T04:02:37.247Z,6.85
2023-02-23T04:08:14.253Z,7.30
2023-02-23T04:11:08.316Z,7.55
2023-02-23T04:13:38.942Z,7.05
2023-02-23T04:16:09.178Z,7.07
2023-02-23T04:18:40.792Z,7.55
2023-02-23T04:21:10.133Z,6.80
2023-02-23T04:23:41.704Z,7.63
2023-02-23T04:26:10.961Z,7.25
2023-02-23T04:28:39.814Z,7.25
2023-02-23T04:31:09.078Z,7.65
2023-02-23T04:33:39.416Z,7.50
2023-02-23T04:36:09.148Z,7.75
2023-02-23T04:38:38.011Z,7.53
2023-02-23T04:41:07.298Z,6.90
2023-02-23T04:43:36.320Z,7.30
2023-02-23T04:46:05.650Z,6.70
2023-02-23T04:48:34.889Z,7.60
2023-02-23T04:51:05.960Z,7.40
2023-02-23T04:53:35.003Z,7.40
2023-02-23T04:56:04.208Z,6.88
2023-02-23T04:58:33.119Z,7.47
2023-02-23T05:01:07.404Z,7.53
2023-02-23T05:03:36.382Z,6.43
2023-02-23T05:06:07.217Z,7.20
2023-02-23T05:08:36.105Z,6.68
2023-02-23T05:11:06.903Z,5.72
2023-02-23T05:13:35.822Z,6.53
2023-02-23T05:16:05.473Z,7.03
2023-02-23T05:18:34.487Z,6.87
2023-02-23T05:21:06.031Z,8.15
2023-02-23T05:23:36.778Z,6.93
2023-02-23T05:26:08.688Z,6.85
2023-02-23T05:28:39.158Z,7.30
2023-02-23T05:31:09.120Z,7.25
2023-02-23T05:33:42.521Z,7.55
2023-02-23T05:36:13.039Z,7.40
2023-02-23T05:38:43.381Z,8.18
2023-02-23T05:41:15.574Z,8.45
2023-02-23T05:43:44.563Z,8.23
2023-02-23T05:46:18.490Z,7.97
2023-02-23T05:48:47.888Z,7.43
2023-02-23T05:51:19.058Z,8.52
2023-02-23T05:53:49.508Z,7.88
2023-02-23T05:56:20.830Z,8.10
2023-02-23T05:58:50.110Z,8.45
2023-02-23T06:01:19.823Z,9.30
2023-02-23T06:03:49.865Z,8.52
2023-02-23T06:08:49.889Z,7.13
2023-02-23T06:11:19.513Z,8.55
2023-02-23T06:13:48.537Z,9.37
2023-02-23T06:16:17.824Z,9.48
2023-02-23T06:18:46.761Z,9.48
2023-02-23T06:21:16.138Z,8.70
2023-02-23T06:23:45.733Z,9.23
2023-02-23T06:26:16.207Z,8.75
2023-02-23T06:28:45.144Z,8.15
2023-02-23T06:31:14.291Z,8.73
2023-02-23T06:33:43.212Z,9.50
2023-02-23T06:36:12.450Z,8.88
2023-02-23T06:38:42.254Z,9.75
2023-02-23T06:41:11.938Z,9.18
2023-02-23T06:43:42.232Z,9.80
2023-02-23T06:46:11.541Z,9.60
2023-02-23T06:48:41.187Z,10.18
2023-02-23T06:51:10.927Z,9.27
2023-02-23T06:53:39.759Z,10.20
2023-02-23T06:56:11.004Z,8.70
2023-02-23T06:58:43.192Z,10.05
2023-02-23T07:01:13.274Z,9.73
2023-02-23T07:03:42.288Z,9.68
2023-02-23T07:06:11.810Z,10.20
2023-02-23T07:08:40.820Z,10.10
2023-02-23T07:11:10.807Z,10.00
2023-02-23T07:13:41.558Z,9.15
2023-02-23T07:16:11.169Z,8.45
2023-02-23T07:18:40.058Z,9.73
2023-02-23T07:21:09.850Z,8.95
2023-02-23T07:23:38.858Z,8.90
2023-02-23T07:26:08.165Z,9.45
2023-02-23T07:28:37.129Z,9.10
2023-02-23T07:31:07.754Z,10.02
2023-02-23T07:33:36.956Z,8.65
2023-02-23T07:36:06.716Z,9.25
2023-02-23T07:38:36.684Z,9.13
2023-02-23T07:43:34.895Z,8.90
2023-02-23T07:46:04.515Z,9.20
2023-02-23T07:48:35.104Z,9.27
2023-02-23T07:51:10.129Z,8.57
2023-02-23T07:53:39.338Z,9.13
2023-02-23T07:56:10.026Z,10.02
2023-02-23T08:01:08.939Z,9.52
2023-02-23T08:03:39.938Z,9.27
2023-02-23T08:06:09.227Z,10.13
2023-02-23T08:08:38.105Z,9.50
2023-02-23T08:11:07.840Z,10.13
2023-02-23T08:13:37.637Z,9.82
2023-02-23T08:16:07.322Z,9.73
2023-02-23T08:18:36.378Z,9.80
2023-02-23T08:21:07.738Z,10.80
2023-02-23T08:23:37.140Z,10.40
2023-02-23T08:26:06.567Z,10.27
2023-02-23T08:28:35.563Z,10.10
2023-02-23T08:31:04.782Z,10.10
2023-02-23T08:33:34.863Z,9.88
2023-02-23T08:36:04.233Z,9.90
2023-02-23T08:38:36.639Z,9.77
2023-02-23T08:41:06.982Z,9.68
2023-02-23T08:43:35.900Z,9.48
2023-02-23T08:46:05.599Z,9.60
2023-02-23T08:48:34.654Z,9.43
2023-02-23T08:51:03.938Z,9.68
2023-02-23T08:53:34.808Z,8.93
2023-02-23T08:56:06.054Z,9.30
2023-02-23T08:58:37.146Z,8.27
2023-02-23T09:01:06.987Z,9.48
2023-02-23T09:03:38.326Z,8.52
2023-02-23T09:06:13.116Z,8.68
2023-02-23T09:08:43.724Z,8.48
2023-02-23T09:11:13.211Z,9.10
2023-02-23T09:13:42.347Z,10.32
2023-02-23T09:16:11.854Z,8.93
2023-02-23T09:18:41.324Z,8.95
2023-02-23T09:21:18.871Z,9.60
2023-02-23T09:23:52.067Z,9.23
2023-02-23T09:26:22.058Z,9.50
2023-02-23T09:28:51.272Z,9.02
2023-02-23T09:31:24.145Z,9.43
2023-02-23T09:33:55.318Z,8.65
2023-02-23T09:36:26.543Z,9.70
2023-02-23T09:38:58.191Z,9.20
2023-02-23T09:42:08.233Z,9.77
2023-02-23T09:44:47.595Z,9.43
2023-02-23T09:47:30.850Z,9.55
2023-02-23T09:50:01.973Z,8.85
2023-02-23T09:53:04.212Z,8.93
2023-02-23T09:55:35.411Z,9.82
2023-02-23T09:58:09.685Z,10.25
2023-02-23T10:00:43.700Z,9.70
2023-02-23T10:03:25.387Z,10.43
2023-02-23T10:06:01.161Z,11.00
2023-02-23T10:08:47.747Z,11.73
2023-02-23T10:11:25.927Z,10.77
2023-02-23T10:14:09.970Z,11.68
2023-02-23T10:16:51.112Z,10.73
2023-02-23T10:19:30.434Z,11.98
2023-02-23T10:22:04.798Z,11.73
2023-02-23T10:24:38.912Z,11.70
2023-02-23T10:27:14.980Z,11.70
2023-02-23T10:29:50.221Z,11.60
2023-02-23T10:32:25.428Z,11.82
2023-02-23T10:34:57.053Z,12.20
2023-02-23T10:37:27.644Z,11.82
2023-02-23T10:39:57.024Z,11.15
2023-02-23T10:42:30.081Z,12.43
2023-02-23T10:45:00.385Z,12.35
2023-02-23T10:47:33.618Z,12.02
2023-02-23T10:50:04.323Z,12.07
2023-02-23T10:52:41.639Z,12.27
2023-02-23T10:55:25.323Z,11.45
2023-02-23T10:58:08.308Z,12.02
2023-02-23T11:00:40.540Z,12.77
2023-02-23T11:03:20.277Z,11.90
2023-02-23T11:05:53.235Z,11.65
2023-02-23T11:08:29.373Z,12.45
2023-02-23T11:11:02.094Z,12.52
2023-02-23T11:13:38.132Z,12.38
2023-02-23T11:16:11.309Z,12.35
2023-02-23T11:18:42.638Z,12.30
2023-02-23T11:21:14.335Z,12.38
2023-02-23T11:23:43.786Z,12.50
2023-02-23T11:26:29.592Z,11.90
2023-02-23T11:29:05.668Z,11.27
2023-02-23T11:31:37.306Z,12.20
2023-02-23T11:34:07.650Z,11.98
2023-02-23T11:36:38.473Z,12.07
2023-02-23T11:39:19.359Z,12.25
2023-02-23T11:42:04.636Z,12.13
2023-02-23T11:44:34.916Z,12.43
2023-02-23T11:47:05.552Z,12.77
2023-02-23T11:52:13.753Z,12.25
2023-02-23T11:54:52.285Z,12.95
2023-02-23T11:57:26.797Z,13.02
2023-02-23T11:59:59.341Z,12.82
2023-02-23T12:02:30.463Z,13.23
2023-02-23T12:05:08.240Z,11.77
2023-02-23T12:07:41.731Z,13.07
2023-02-23T12:10:23.136Z,12.50
2023-02-23T12:12:59.393Z,12.68
2023-02-23T12:15:42.890Z,12.45
2023-02-23T12:18:19.961Z,11.88
2023-02-23T12:20:54.264Z,11.43
2023-02-23T12:23:27.756Z,12.55
2023-02-23T12:26:01.042Z,11.98
2023-02-23T12:28:36.764Z,11.90
2023-02-23T12:31:20.752Z,11.98
2023-02-23T12:33:54.860Z,13.38
2023-02-23T12:36:35.214Z,12.07
2023-02-23T12:39:17.852Z,11.85
2023-02-23T12:41:55.756Z,13.27
2023-02-23T12:44:36.255Z,12.13
2023-02-23T12:47:15.021Z,12.95
2023-02-23T12:49:48.867Z,12.48
2023-02-23T12:52:21.104Z,11.98
2023-02-23T12:54:50.711Z,13.18
2023-02-23T12:57:30.655Z,13.40
2023-02-23T13:00:36.236Z,13.20
2023-02-23T13:03:43.534Z,13.45
2023-02-23T13:06:22.435Z,15.20
2023-02-23T13:09:10.486Z,13.13
2023-02-23T13:12:00.265Z,11.93
2023-02-23T13:14:36.021Z,12.25
2023-02-23T13:17:14.112Z,12.32
2023-02-23T13:19:52.909Z,11.07
2023-02-23T13:22:32.346Z,12.48
2023-02-23T13:25:05.259Z,12.88
2023-02-23T13:27:39.509Z,12.50
2023-02-23T13:30:12.578Z,13.35
2023-02-23T13:32:42.011Z,14.57
2023-02-23T13:35:16.884Z,13.27
2023-02-23T13:37:52.789Z,13.88
2023-02-23T13:40:32.832Z,13.07
2023-02-23T13:43:13.730Z,14.50
2023-02-23T13:45:51.888Z,13.35
2023-02-23T13:48:44.471Z,13.80
2023-02-23T13:51:27.008Z,14.30
2023-02-23T13:54:08.122Z,13.07
2023-02-23T13:56:45.070Z,13.95
2023-02-23T13:59:20.682Z,13.02
2023-02-23T14:01:53.239Z,14.30
2023-02-23T14:04:27.706Z,13.48
2023-02-23T14:07:03.065Z,13.57
2023-02-23T14:09:36.687Z,14.45
2023-02-23T14:12:19.122Z,13.50
2023-02-23T14:14:49.064Z,13.40
2023-02-23T14:17:50.480Z,13.10
2023-02-23T14:20:38.305Z,14.13
2023-02-23T14:23:18.473Z,13.90
2023-02-23T14:25:57.004Z,12.90
2023-02-23T14:28:30.686Z,15.13
2023-02-23T14:31:09.186Z,14.25
2023-02-23T14:33:53.658Z,13.13
2023-02-23T14:36:44.480Z,12.95
2023-02-23T14:41:53.707Z,13.65
2023-02-23T14:44:30.047Z,13.93
2023-02-23T14:47:05.465Z,12.23
2023-02-23T14:49:38.982Z,13.20
2023-02-23T14:52:10.664Z,14.05
2023-02-23T14:54:42.074Z,14.30
2023-02-23T14:57:22.042Z,15.20
2023-02-23T14:59:57.593Z,13.82
2023-02-23T15:02:28.644Z,14.07
2023-02-23T15:04:58.997Z,14.02
2023-02-23T15:07:34.514Z,15.05
2023-02-23T15:10:04.854Z,15.40
2023-02-23T15:12:39.490Z,14.35
2023-02-23T15:15:18.834Z,14.70
2023-02-23T15:17:49.577Z,14.63
2023-02-23T15:20:23.404Z,14.57
2023-02-23T15:22:55.264Z,14.93
2023-02-23T15:25:27.398Z,15.05
2023-02-23T15:27:58.252Z,15.07
2023-02-23T15:33:04.547Z,14.05
2023-02-23T15:35:38.358Z,15.63
2023-02-23T15:38:17.974Z,15.10
2023-02-23T15:40:58.578Z,15.40
2023-02-23T15:43:30.527Z,15.45
2023-02-23T15:46:04.549Z,14.93
2023-02-23T15:48:45.941Z,16.40
2023-02-23T15:51:29.833Z,15.60
2023-02-23T15:54:00.405Z,16.85
2023-02-23T15:56:32.078Z,15.65
2023-02-23T15:59:13.324Z,15.68
2023-02-23T16:01:45.682Z,16.55
2023-02-23T16:04:20.054Z,15.93
2023-02-23T16:06:54.911Z,15.52
2023-02-23T16:09:29.694Z,17.13
2023-02-23T16:12:03.846Z,16.02
2023-02-23T16:14:45.384Z,15.45
2023-02-23T16:17:30.872Z,16.88
2023-02-23T16:20:16.170Z,17.02
2023-02-23T16:22:47.064Z,16.85
2023-02-23T16:25:19.682Z,17.27
2023-02-23T16:27:55.014Z,17.30
2023-02-23T16:30:44.468Z,16.75
2023-02-23T16:33:19.827Z,17.05
2023-02-23T16:35:51.426Z,17.52
2023-02-23T16:38:27.309Z,16.73
2023-02-23T16:40:57.025Z,17.08
2023-02-23T16:43:26.053Z,17.55
2023-02-23T16:45:57.722Z,17.75
2023-02-23T16:48:28.108Z,18.38
2023-02-23T16:50:59.164Z,15.38
2023-02-23T16:53:28.393Z,17.23
2023-02-23T16:56:00.972Z,18.63
2023-02-23T16:58:31.429Z,19.00
2023-02-23T17:01:02.491Z,18.63
2023-02-23T17:03:32.703Z,18.58
2023-02-23T17:06:03.552Z,18.60
2023-02-23T17:08:34.687Z,20.13
2023-02-23T17:11:05.752Z,18.85
2023-02-23T17:13:35.439Z,20.52
2023-02-23T17:16:09.099Z,19.80
2023-02-23T17:18:42.885Z,18.67
2023-02-23T17:21:15.446Z,18.48
2023-02-23T17:23:50.994Z,19.30
2023-02-23T17:26:23.947Z,20.33
2023-02-23T17:28:54.073Z,18.65
2023-02-23T17:31:27.049Z,18.98
2023-02-23T17:33:56.469Z,20.80
2023-02-23T17:36:27.519Z,19.85
2023-02-23T17:38:58.706Z,19.92
2023-02-23T17:41:28.283Z,20.83
2023-02-23T17:43:57.197Z,19.80
2023-02-23T17:46:27.962Z,20.83
2023-02-23T17:48:57.190Z,20.92
2023-02-23T17:51:27.108Z,21.37
2023-02-23T17:53:57.265Z,21.13
2023-02-23T17:56:31.451Z,20.40
2023-02-23T17:59:02.116Z,21.00
2023-02-23T18:01:34.660Z,21.30
2023-02-23T18:04:06.406Z,21.80
2023-02-23T18:06:36.306Z,20.08
2023-02-23T18:09:06.519Z,20.48
2023-02-23T18:11:36.950Z,20.52
2023-02-23T18:14:06.442Z,18.85
2023-02-23T18:16:37.588Z,18.58
2023-02-23T18:19:06.658Z,17.95
2023-02-23T18:21:40.672Z,18.63
2023-02-23T18:24:10.421Z,18.92
2023-02-23T18:26:40.073Z,18.17
2023-02-23T18:29:09.188Z,19.08
2023-02-23T18:31:40.513Z,17.98
2023-02-23T18:34:10.713Z,17.20
2023-02-23T18:39:09.947Z,17.50
2023-02-23T18:41:39.404Z,17.83
2023-02-23T18:44:12.632Z,19.23
2023-02-23T18:46:44.217Z,19.23
2023-02-23T18:49:15.975Z,18.73
2023-02-23T18:51:45.549Z,18.48
2023-02-23T18:54:18.524Z,17.55
2023-02-23T18:56:49.573Z,18.83
2023-02-23T18:59:18.858Z,18.48
2023-02-23T19:01:49.577Z,18.77
2023-02-23T19:04:18.860Z,18.13
2023-02-23T19:06:48.335Z,18.83
2023-02-23T19:09:23.126Z,17.77
2023-02-23T19:11:54.140Z,19.30
2023-02-23T19:14:40.826Z,17.20
2023-02-23T19:17:15.783Z,18.25
2023-02-23T19:19:45.540Z,19.30
2023-02-23T19:22:15.577Z,18.00
2023-02-23T19:24:44.619Z,18.65
2023-02-23T19:27:15.598Z,17.70
2023-02-23T19:29:45.427Z,17.77
2023-02-23T19:32:18.051Z,17.40
2023-02-23T19:34:47.895Z,18.38
2023-02-23T19:37:17.137Z,18.33
2023-02-23T19:39:46.514Z,18.38
2023-02-23T19:42:19.365Z,17.67
2023-02-23T19:44:48.494Z,18.23
2023-02-23T19:47:19.129Z,17.45
2023-02-23T19:52:17.507Z,19.23
2023-02-23T19:54:46.562Z,19.35
2023-02-23T19:57:16.137Z,19.23
2023-02-23T19:59:45.108Z,20.60
2023-02-23T20:02:14.503Z,20.25
2023-02-23T20:04:48.254Z,20.80
2023-02-23T20:07:18.684Z,20.75
2023-02-23T20:09:47.854Z,21.70
2023-02-23T20:12:17.524Z,19.83
2023-02-23T20:14:49.817Z,21.13
2023-02-23T20:17:20.142Z,20.60
2023-02-23T20:19:51.867Z,20.23
2023-02-23T20:22:21.818Z,20.42
2023-02-23T20:24:50.920Z,21.20
2023-02-23T20:27:22.802Z,21.07
2023-02-23T20:29:53.606Z,20.80
2023-02-23T20:32:23.131Z,21.17
2023-02-23T20:34:54.347Z,21.23
2023-02-23T20:37:23.902Z,20.40
2023-02-23T20:39:55.887Z,21.38
2023-02-23T20:42:28.259Z,21.85
2023-02-23T20:44:57.538Z,20.85
2023-02-23T20:47:26.959Z,21.67
2023-02-23T20:49:57.529Z,20.92
2023-02-23T20:52:27.239Z,21.75
2023-02-23T20:54:56.338Z,22.17
2023-02-23T20:57:26.895Z,21.98
2023-02-23T21:02:25.071Z,22.23
2023-02-23T21:04:54.053Z,20.58
2023-02-23T21:07:27.186Z,22.55
2023-02-23T21:09:59.402Z,21.27
2023-02-23T21:12:29.233Z,22.75
2023-02-23T21:14:58.222Z,22.25
2023-02-23T21:17:28.018Z,22.58
2023-02-23T21:19:56.899Z,22.58
2023-02-23T21:22:27.415Z,24.15
2023-02-23T21:27:25.380Z,21.92
2023-02-23T21:29:55.299Z,23.08
2023-02-23T21:34:56.222Z,24.65
2023-02-23T21:37:26.897Z,23.65
2023-02-23T21:42:24.989Z,23.50
2023-02-23T21:44:54.136Z,23.27
2023-02-23T21:47:23.515Z,25.13
2023-02-23T21:49:54.306Z,24.60
2023-02-23T21:52:23.804Z,24.67
2023-02-23T21:54:54.042Z,24.45
2023-02-23T21:57:24.480Z,25.20
2023-02-23T21:59:53.719Z,25.40
2023-02-23T22:02:23.037Z,26.15
2023-02-23T22:04:52.556Z,23.20
2023-02-23T22:07:21.799Z,25.08
2023-02-23T22:09:50.850Z,25.15
2023-02-23T22:12:21.505Z,25.35
2023-02-23T22:14:50.780Z,24.75
2023-02-23T22:17:20.166Z,23.98
2023-02-23T22:19:53.839Z,27.58
2023-02-23T22:22:23.113Z,23.92
2023-02-23T22:24:52.340Z,26.58
2023-02-23T22:27:23.192Z,25.55
2023-02-23T22:32:21.122Z,23.40
2023-02-23T22:34:50.118Z,24.35
2023-02-23T22:37:21.955Z,24.40
2023-02-23T22:39:52.128Z,25.95
2023-02-23T22:42:24.400Z,25.40
2023-02-23T22:44:53.391Z,23.63
2023-02-23T22:47:22.546Z,22.70
2023-02-23T22:49:51.445Z,23.77
2023-02-23T22:52:20.614Z,24.73
2023-02-23T22:54:51.214Z,25.67
2023-02-23T22:57:21.847Z,24.73
2023-02-23T23:00:00.399Z,23.42
2023-02-23T23:02:32.298Z,24.83
2023-02-23T23:05:01.868Z,23.23
2023-02-23T23:07:32.422Z,23.60
2023-02-23T23:10:05.438Z,23.50
2023-02-23T23:12:36.582Z,23.13
2023-02-23T23:15:07.203Z,20.80
2023-02-23T23:17:36.461Z,22.05
2023-02-23T23:20:11.745Z,23.33
2023-02-23T23:22:41.048Z,22.02
2023-02-23T23:25:14.914Z,21.75
2023-02-23T23:27:46.025Z,22.35
2023-02-23T23:30:21.055Z,20.88
2023-02-23T23:32:50.353Z,21.48
2023-02-23T23:35:21.862Z,21.42
2023-02-23T23:37:51.743Z,21.23
2023-02-23T23:40:24.363Z,21.35
2023-02-23T23:42:55.895Z,19.95
2023-02-23T23:45:25.347Z,21.70
2023-02-23T23:47:54.528Z,21.13
2023-02-23T23:50:26.843Z,20.20
2023-02-23T23:52:57.086Z,21.38
2023-02-23T23:55:31.407Z,20.48
2023-02-23T23:58:03.639Z,19.30
